sensor_id;sensor_type;location;lat;lon;timestamp;temperature;humidity
4811;DHT22;2419;51.276;6.472;2023-11-19T00:00:27;12.20;99.90
4811;DHT22;2419;51.276;6.472;2023-11-19T00:02:56;12.20;99.90
4811;DHT22;2419;51.276;6.472;2023-11-19T00:05:24;12.30;99.90
4811;DHT22;2419;51.276;6.472;2023-11-19T00:07:53;12.30;99.90
4811;DHT22;2419;51.276;6.472;2023-11-19T00:10:21;12.30;99.90
4811;DHT22;2419;51.276;6.472;2023-11-19T00:12:49;12.30;99.90
4811;DHT22;2419;51.276;6.472;2023-11-19T00:15:18;12.40;99.90
4811;DHT22;2419;51.276;6.472;2023-11-19T00:17:47;12.40;99.90
4811;DHT22;2419;51.276;6.472;2023-11-19T00:20:17;12.40;99.90
4811;DHT22;2419;51.276;6.472;2023-11-19T00:22:45;12.40;99.90
4811;DHT22;2419;51.276;6.472;2023-11-19T00:25:18;12.40;99.90
4811;DHT22;2419;51.276;6.472;2023-11-19T00:27:46;12.40;99.90
4811;DHT22;2419;51.276;6.472;2023-11-19T00:30:14;12.40;99.90
4811;DHT22;2419;51.276;6.472;2023-11-19T00:32:43;12.50;99.90
4811;DHT22;2419;51.276;6.472;2023-11-19T00:35:12;12.50;99.90
4811;DHT22;2419;51.276;6.472;2023-11-19T00:37:41;12.50;99.90
4811;DHT22;2419;51.276;6.472;2023-11-19T00:40:12;12.40;99.90
4811;DHT22;2419;51.276;6.472;2023-11-19T00:42:44;12.40;99.90
4811;DHT22;2419;51.276;6.472;2023-11-19T00:45:12;12.40;99.90
4811;DHT22;2419;51.276;6.472;2023-11-19T00:47:41;12.40;99.90
4811;DHT22;2419;51.276;6.472;2023-11-19T00:50:10;12.40;99.90
4811;DHT22;2419;51.276;6.472;2023-11-19T00:52:39;12.40;99.90
4811;DHT22;2419;51.276;6.472;2023-11-19T00:55:07;12.40;99.90
4811;DHT22;2419;51.276;6.472;2023-11-19T00:57:35;12.40;99.90
4811;DHT22;2419;51.276;6.472;2023-11-19T01:00:07;12.40;99.90
4811;DHT22;2419;51.276;6.472;2023-11-19T01:02:45;12.50;99.90
4811;DHT22;2419;51.276;6.472;2023-11-19T01:05:16;12.40;99.90
4811;DHT22;2419;51.276;6.472;2023-11-19T01:07:48;12.50;99.90
4811;DHT22;2419;51.276;6.472;2023-11-19T01:10:17;12.50;99.90
4811;DHT22;2419;51.276;6.472;2023-11-19T01:12:45;12.40;99.90
4811;DHT22;2419;51.276;6.472;2023-11-19T01:15:15;12.50;99.90
4811;DHT22;2419;51.276;6.472;2023-11-19T01:17:45;12.50;99.90
4811;DHT22;2419;51.276;6.472;2023-11-19T01:20:16;12.50;99.90
4811;DHT22;2419;51.276;6.472;2023-11-19T01:22:44;12.60;99.90
4811;DHT22;2419;51.276;6.472;2023-11-19T01:25:12;12.60;99.90
4811;DHT22;2419;51.276;6.472;2023-11-19T01:27:40;12.60;99.90
4811;DHT22;2419;51.276;6.472;2023-11-19T01:30:10;12.60;99.90
4811;DHT22;2419;51.276;6.472;2023-11-19T01:32:41;12.60;99.90
4811;DHT22;2419;51.276;6.472;2023-11-19T01:35:09;12.60;99.90
4811;DHT22;2419;51.276;6.472;2023-11-19T01:37:37;12.60;99.90
4811;DHT22;2419;51.276;6.472;2023-11-19T01:40:06;12.60;99.90
4811;DHT22;2419;51.276;6.472;2023-11-19T01:42:38;12.60;99.90
4811;DHT22;2419;51.276;6.472;2023-11-19T01:45:07;12.70;99.90
4811;DHT22;2419;51.276;6.472;2023-11-19T01:47:37;12.70;99.90
4811;DHT22;2419;51.276;6.472;2023-11-19T01:50:08;12.70;99.90
4811;DHT22;2419;51.276;6.472;2023-11-19T01:52:37;12.70;99.90
4811;DHT22;2419;51.276;6.472;2023-11-19T01:55:07;12.70;99.90
4811;DHT22;2419;51.276;6.472;2023-11-19T01:57:36;12.70;99.90
4811;DHT22;2419;51.276;6.472;2023-11-19T02:00:09;12.80;99.90
4811;DHT22;2419;51.276;6.472;2023-11-19T02:02:43;12.80;99.90
4811;DHT22;2419;51.276;6.472;2023-11-19T02:05:14;12.80;99.90
4811;DHT22;2419;51.276;6.472;2023-11-19T02:07:43;12.90;99.90
4811;DHT22;2419;51.276;6.472;2023-11-19T02:10:13;12.80;99.90
4811;DHT22;2419;51.276;6.472;2023-11-19T02:12:43;12.80;99.90
4811;DHT22;2419;51.276;6.472;2023-11-19T02:15:11;12.80;99.90
4811;DHT22;2419;51.276;6.472;2023-11-19T02:17:40;12.80;99.90
4811;DHT22;2419;51.276;6.472;2023-11-19T02:20:08;12.80;99.90
4811;DHT22;2419;51.276;6.472;2023-11-19T02:22:41;12.80;99.90
4811;DHT22;2419;51.276;6.472;2023-11-19T02:25:24;12.80;99.90
4811;DHT22;2419;51.276;6.472;2023-11-19T02:27:57;12.90;99.90
4811;DHT22;2419;51.276;6.472;2023-11-19T02:30:26;12.80;99.90
4811;DHT22;2419;51.276;6.472;2023-11-19T02:32:56;12.80;99.90
4811;DHT22;2419;51.276;6.472;2023-11-19T02:35:25;12.80;99.90
4811;DHT22;2419;51.276;6.472;2023-11-19T02:37:54;12.70;99.90
4811;DHT22;2419;51.276;6.472;2023-11-19T02:40:23;12.70;99.90
4811;DHT22;2419;51.276;6.472;2023-11-19T02:42:52;12.70;99.90
4811;DHT22;2419;51.276;6.472;2023-11-19T02:45:22;12.70;99.90
4811;DHT22;2419;51.276;6.472;2023-11-19T02:47:51;12.70;99.90
4811;DHT22;2419;51.276;6.472;2023-11-19T02:50:19;12.90;99.90
4811;DHT22;2419;51.276;6.472;2023-11-19T02:52:54;13.00;99.90
4811;DHT22;2419;51.276;6.472;2023-11-19T02:55:24;12.90;99.90
4811;DHT22;2419;51.276;6.472;2023-11-19T02:57:54;12.80;99.90
4811;DHT22;2419;51.276;6.472;2023-11-19T03:00:27;12.80;99.90
4811;DHT22;2419;51.276;6.472;2023-11-19T03:03:02;12.90;99.90
4811;DHT22;2419;51.276;6.472;2023-11-19T03:05:44;12.70;99.90
4811;DHT22;2419;51.276;6.472;2023-11-19T03:08:14;12.80;99.90
4811;DHT22;2419;51.276;6.472;2023-11-19T03:10:45;12.70;99.90
4811;DHT22;2419;51.276;6.472;2023-11-19T03:13:14;12.80;99.90
4811;DHT22;2419;51.276;6.472;2023-11-19T03:15:43;12.80;99.90
4811;DHT22;2419;51.276;6.472;2023-11-19T03:18:11;12.90;99.90
4811;DHT22;2419;51.276;6.472;2023-11-19T03:20:39;12.90;99.90
4811;DHT22;2419;51.276;6.472;2023-11-19T03:23:08;13.00;99.90
4811;DHT22;2419;51.276;6.472;2023-11-19T03:25:35;13.00;99.90
4811;DHT22;2419;51.276;6.472;2023-11-19T03:28:04;12.90;99.90
4811;DHT22;2419;51.276;6.472;2023-11-19T03:30:33;12.90;99.90
4811;DHT22;2419;51.276;6.472;2023-11-19T03:33:03;12.80;99.90
4811;DHT22;2419;51.276;6.472;2023-11-19T03:35:31;12.80;99.90
4811;DHT22;2419;51.276;6.472;2023-11-19T03:37:59;12.80;99.90
4811;DHT22;2419;51.276;6.472;2023-11-19T03:40:28;12.80;99.90
4811;DHT22;2419;51.276;6.472;2023-11-19T03:42:56;12.70;99.90
4811;DHT22;2419;51.276;6.472;2023-11-19T03:45:25;12.60;99.90
4811;DHT22;2419;51.276;6.472;2023-11-19T03:47:53;12.60;99.90
4811;DHT22;2419;51.276;6.472;2023-11-19T03:50:22;12.60;99.90
4811;DHT22;2419;51.276;6.472;2023-11-19T03:52:51;12.50;99.90
4811;DHT22;2419;51.276;6.472;2023-11-19T03:55:19;12.50;99.90
4811;DHT22;2419;51.276;6.472;2023-11-19T03:57:47;12.50;99.90
4811;DHT22;2419;51.276;6.472;2023-11-19T04:00:16;12.50;99.90
4811;DHT22;2419;51.276;6.472;2023-11-19T04:02:44;12.50;99.90
4811;DHT22;2419;51.276;6.472;2023-11-19T04:05:14;12.40;99.90
4811;DHT22;2419;51.276;6.472;2023-11-19T04:07:43;12.30;99.90
4811;DHT22;2419;51.276;6.472;2023-11-19T04:10:11;12.20;99.90
4811;DHT22;2419;51.276;6.472;2023-11-19T04:12:39;12.30;99.90
4811;DHT22;2419;51.276;6.472;2023-11-19T04:15:08;12.30;99.90
4811;DHT22;2419;51.276;6.472;2023-11-19T04:17:36;12.30;99.90
4811;DHT22;2419;51.276;6.472;2023-11-19T04:20:05;12.20;99.90
4811;DHT22;2419;51.276;6.472;2023-11-19T04:22:37;12.10;99.90
4811;DHT22;2419;51.276;6.472;2023-11-19T04:25:07;12.10;99.90
4811;DHT22;2419;51.276;6.472;2023-11-19T04:27:36;12.00;99.90
4811;DHT22;2419;51.276;6.472;2023-11-19T04:30:05;12.10;99.90
4811;DHT22;2419;51.276;6.472;2023-11-19T04:32:37;12.10;99.90
4811;DHT22;2419;51.276;6.472;2023-11-19T04:35:06;12.10;99.90
4811;DHT22;2419;51.276;6.472;2023-11-19T04:37:34;12.00;99.90
4811;DHT22;2419;51.276;6.472;2023-11-19T04:40:03;12.00;99.90
4811;DHT22;2419;51.276;6.472;2023-11-19T04:42:33;12.10;99.90
4811;DHT22;2419;51.276;6.472;2023-11-19T04:45:01;12.10;99.90
4811;DHT22;2419;51.276;6.472;2023-11-19T04:47:29;12.10;99.90
4811;DHT22;2419;51.276;6.472;2023-11-19T04:49:57;12.10;99.90
4811;DHT22;2419;51.276;6.472;2023-11-19T04:52:25;12.10;99.90
4811;DHT22;2419;51.276;6.472;2023-11-19T04:54:53;12.10;99.90
4811;DHT22;2419;51.276;6.472;2023-11-19T04:57:21;12.10;99.90
4811;DHT22;2419;51.276;6.472;2023-11-19T04:59:50;12.20;99.90
4811;DHT22;2419;51.276;6.472;2023-11-19T05:02:19;12.30;99.90
4811;DHT22;2419;51.276;6.472;2023-11-19T05:04:46;12.30;99.90
4811;DHT22;2419;51.276;6.472;2023-11-19T05:07:16;12.30;99.90
4811;DHT22;2419;51.276;6.472;2023-11-19T05:09:44;12.20;99.90
4811;DHT22;2419;51.276;6.472;2023-11-19T05:12:12;12.10;99.90
4811;DHT22;2419;51.276;6.472;2023-11-19T05:14:40;12.10;99.90
4811;DHT22;2419;51.276;6.472;2023-11-19T05:17:16;12.20;99.90
4811;DHT22;2419;51.276;6.472;2023-11-19T05:19:46;12.20;99.90
4811;DHT22;2419;51.276;6.472;2023-11-19T05:22:15;12.20;99.90
4811;DHT22;2419;51.276;6.472;2023-11-19T05:24:43;12.20;99.90
4811;DHT22;2419;51.276;6.472;2023-11-19T05:27:11;12.20;99.90
4811;DHT22;2419;51.276;6.472;2023-11-19T05:29:40;12.20;99.90
4811;DHT22;2419;51.276;6.472;2023-11-19T05:32:09;12.20;99.90
4811;DHT22;2419;51.276;6.472;2023-11-19T05:34:39;12.20;99.90
4811;DHT22;2419;51.276;6.472;2023-11-19T05:37:10;12.30;99.90
4811;DHT22;2419;51.276;6.472;2023-11-19T05:39:38;12.30;99.90
4811;DHT22;2419;51.276;6.472;2023-11-19T05:42:06;12.30;99.90
4811;DHT22;2419;51.276;6.472;2023-11-19T05:44:34;12.40;99.90
4811;DHT22;2419;51.276;6.472;2023-11-19T05:47:07;12.40;99.90
4811;DHT22;2419;51.276;6.472;2023-11-19T05:49:35;12.40;99.90
4811;DHT22;2419;51.276;6.472;2023-11-19T05:52:04;12.40;99.90
4811;DHT22;2419;51.276;6.472;2023-11-19T05:54:34;12.40;99.90
4811;DHT22;2419;51.276;6.472;2023-11-19T05:57:04;12.30;99.90
4811;DHT22;2419;51.276;6.472;2023-11-19T05:59:33;12.20;99.90
4811;DHT22;2419;51.276;6.472;2023-11-19T06:02:03;12.30;99.90
4811;DHT22;2419;51.276;6.472;2023-11-19T06:04:31;12.20;99.90
4811;DHT22;2419;51.276;6.472;2023-11-19T06:06:59;12.20;99.90
4811;DHT22;2419;51.276;6.472;2023-11-19T06:09:28;12.20;99.90
4811;DHT22;2419;51.276;6.472;2023-11-19T06:11:56;12.20;99.90
4811;DHT22;2419;51.276;6.472;2023-11-19T06:14:24;12.10;99.90
4811;DHT22;2419;51.276;6.472;2023-11-19T06:16:52;12.10;99.90
4811;DHT22;2419;51.276;6.472;2023-11-19T06:19:20;12.00;99.90
4811;DHT22;2419;51.276;6.472;2023-11-19T06:21:54;12.10;99.90
4811;DHT22;2419;51.276;6.472;2023-11-19T06:24:22;12.20;99.90
4811;DHT22;2419;51.276;6.472;2023-11-19T06:26:51;12.10;99.90
4811;DHT22;2419;51.276;6.472;2023-11-19T06:29:19;12.10;99.90
4811;DHT22;2419;51.276;6.472;2023-11-19T06:31:47;12.00;99.90
4811;DHT22;2419;51.276;6.472;2023-11-19T06:34:16;12.00;99.90
4811;DHT22;2419;51.276;6.472;2023-11-19T06:36:45;11.90;99.90
4811;DHT22;2419;51.276;6.472;2023-11-19T06:39:13;11.90;99.90
4811;DHT22;2419;51.276;6.472;2023-11-19T06:41:45;11.80;99.90
4811;DHT22;2419;51.276;6.472;2023-11-19T06:44:14;11.80;99.90
4811;DHT22;2419;51.276;6.472;2023-11-19T06:46:42;11.80;99.90
4811;DHT22;2419;51.276;6.472;2023-11-19T06:49:10;11.80;99.90
4811;DHT22;2419;51.276;6.472;2023-11-19T06:51:41;11.80;99.90
4811;DHT22;2419;51.276;6.472;2023-11-19T06:54:10;11.70;99.90
4811;DHT22;2419;51.276;6.472;2023-11-19T06:56:38;11.70;99.90
4811;DHT22;2419;51.276;6.472;2023-11-19T06:59:06;11.70;99.90
4811;DHT22;2419;51.276;6.472;2023-11-19T07:01:36;11.60;99.90
4811;DHT22;2419;51.276;6.472;2023-11-19T07:04:05;11.50;99.90
4811;DHT22;2419;51.276;6.472;2023-11-19T07:06:36;11.60;99.90
4811;DHT22;2419;51.276;6.472;2023-11-19T07:09:04;11.70;99.90
4811;DHT22;2419;51.276;6.472;2023-11-19T07:11:37;11.70;99.90
4811;DHT22;2419;51.276;6.472;2023-11-19T07:14:06;11.70;99.90
4811;DHT22;2419;51.276;6.472;2023-11-19T07:16:35;11.70;99.90
4811;DHT22;2419;51.276;6.472;2023-11-19T07:19:05;11.70;99.90
4811;DHT22;2419;51.276;6.472;2023-11-19T07:21:33;11.70;99.90
4811;DHT22;2419;51.276;6.472;2023-11-19T07:24:02;11.70;99.90
4811;DHT22;2419;51.276;6.472;2023-11-19T07:26:31;11.70;99.90
4811;DHT22;2419;51.276;6.472;2023-11-19T07:28:59;11.80;99.90
4811;DHT22;2419;51.276;6.472;2023-11-19T07:31:28;11.90;99.90
4811;DHT22;2419;51.276;6.472;2023-11-19T07:33:58;11.90;99.90
4811;DHT22;2419;51.276;6.472;2023-11-19T07:36:26;11.90;99.90
4811;DHT22;2419;51.276;6.472;2023-11-19T07:38:54;12.00;99.90
4811;DHT22;2419;51.276;6.472;2023-11-19T07:41:24;12.10;99.90
4811;DHT22;2419;51.276;6.472;2023-11-19T07:43:52;12.10;99.90
4811;DHT22;2419;51.276;6.472;2023-11-19T07:46:21;12.10;99.90
4811;DHT22;2419;51.276;6.472;2023-11-19T07:48:49;12.20;99.90
4811;DHT22;2419;51.276;6.472;2023-11-19T07:51:18;12.30;99.90
4811;DHT22;2419;51.276;6.472;2023-11-19T07:53:46;12.40;99.90
4811;DHT22;2419;51.276;6.472;2023-11-19T07:56:15;12.50;99.90
4811;DHT22;2419;51.276;6.472;2023-11-19T07:58:44;12.50;99.90
4811;DHT22;2419;51.276;6.472;2023-11-19T08:01:12;12.50;99.90
4811;DHT22;2419;51.276;6.472;2023-11-19T08:03:40;12.60;99.90
4811;DHT22;2419;51.276;6.472;2023-11-19T08:06:26;12.70;99.90
4811;DHT22;2419;51.276;6.472;2023-11-19T08:08:54;12.80;99.90
4811;DHT22;2419;51.276;6.472;2023-11-19T08:11:22;13.10;99.90
4811;DHT22;2419;51.276;6.472;2023-11-19T08:13:51;13.20;99.90
4811;DHT22;2419;51.276;6.472;2023-11-19T08:16:19;13.20;99.90
4811;DHT22;2419;51.276;6.472;2023-11-19T08:18:47;13.30;99.90
4811;DHT22;2419;51.276;6.472;2023-11-19T08:21:15;13.50;99.90
4811;DHT22;2419;51.276;6.472;2023-11-19T08:23:44;13.70;99.90
4811;DHT22;2419;51.276;6.472;2023-11-19T08:26:14;13.20;99.90
4811;DHT22;2419;51.276;6.472;2023-11-19T08:28:47;13.20;99.90
4811;DHT22;2419;51.276;6.472;2023-11-19T08:31:15;13.20;99.90
4811;DHT22;2419;51.276;6.472;2023-11-19T08:33:43;13.20;99.90
4811;DHT22;2419;51.276;6.472;2023-11-19T08:36:15;13.20;99.90
4811;DHT22;2419;51.276;6.472;2023-11-19T08:38:45;13.20;99.90
4811;DHT22;2419;51.276;6.472;2023-11-19T08:41:13;13.20;99.90
4811;DHT22;2419;51.276;6.472;2023-11-19T08:43:41;13.20;99.90
4811;DHT22;2419;51.276;6.472;2023-11-19T08:46:10;13.60;99.90
4811;DHT22;2419;51.276;6.472;2023-11-19T08:48:38;13.60;99.90
4811;DHT22;2419;51.276;6.472;2023-11-19T08:51:06;13.80;99.90
4811;DHT22;2419;51.276;6.472;2023-11-19T08:53:35;14.10;99.90
4811;DHT22;2419;51.276;6.472;2023-11-19T08:56:05;14.20;99.90
4811;DHT22;2419;51.276;6.472;2023-11-19T08:58:33;14.00;99.90
4811;DHT22;2419;51.276;6.472;2023-11-19T09:01:01;14.00;99.90
4811;DHT22;2419;51.276;6.472;2023-11-19T09:03:31;14.00;99.90
4811;DHT22;2419;51.276;6.472;2023-11-19T09:06:00;14.30;99.90
4811;DHT22;2419;51.276;6.472;2023-11-19T09:08:28;14.20;99.90
4811;DHT22;2419;51.276;6.472;2023-11-19T09:10:56;13.90;99.90
4811;DHT22;2419;51.276;6.472;2023-11-19T09:13:26;13.80;99.90
4811;DHT22;2419;51.276;6.472;2023-11-19T09:15:54;13.80;99.90
4811;DHT22;2419;51.276;6.472;2023-11-19T09:18:25;14.30;99.90
4811;DHT22;2419;51.276;6.472;2023-11-19T09:20:54;14.60;99.90
4811;DHT22;2419;51.276;6.472;2023-11-19T09:23:22;14.80;99.90
4811;DHT22;2419;51.276;6.472;2023-11-19T09:25:51;15.00;99.90
4811;DHT22;2419;51.276;6.472;2023-11-19T09:28:19;15.30;99.90
4811;DHT22;2419;51.276;6.472;2023-11-19T09:30:49;15.20;99.90
4811;DHT22;2419;51.276;6.472;2023-11-19T09:33:17;15.60;99.90
4811;DHT22;2419;51.276;6.472;2023-11-19T09:35:45;15.40;99.90
4811;DHT22;2419;51.276;6.472;2023-11-19T09:38:13;14.70;99.90
4811;DHT22;2419;51.276;6.472;2023-11-19T09:40:41;14.40;99.90
4811;DHT22;2419;51.276;6.472;2023-11-19T09:43:09;14.70;99.90
4811;DHT22;2419;51.276;6.472;2023-11-19T09:45:49;15.10;99.90
4811;DHT22;2419;51.276;6.472;2023-11-19T09:48:17;16.00;99.90
4811;DHT22;2419;51.276;6.472;2023-11-19T09:50:47;16.10;99.90
4811;DHT22;2419;51.276;6.472;2023-11-19T09:53:15;16.40;99.90
4811;DHT22;2419;51.276;6.472;2023-11-19T09:55:44;16.00;99.90
4811;DHT22;2419;51.276;6.472;2023-11-19T09:58:14;15.80;99.90
4811;DHT22;2419;51.276;6.472;2023-11-19T10:00:43;15.30;99.90
4811;DHT22;2419;51.276;6.472;2023-11-19T10:03:23;14.80;99.90
4811;DHT22;2419;51.276;6.472;2023-11-19T10:05:52;14.50;99.90
4811;DHT22;2419;51.276;6.472;2023-11-19T10:08:20;14.50;99.90
4811;DHT22;2419;51.276;6.472;2023-11-19T10:10:48;15.30;99.90
4811;DHT22;2419;51.276;6.472;2023-11-19T10:13:16;15.80;99.90
4811;DHT22;2419;51.276;6.472;2023-11-19T10:15:44;16.40;99.90
4811;DHT22;2419;51.276;6.472;2023-11-19T10:18:14;17.00;99.90
4811;DHT22;2419;51.276;6.472;2023-11-19T10:20:43;17.40;99.90
4811;DHT22;2419;51.276;6.472;2023-11-19T10:23:13;17.60;99.90
4811;DHT22;2419;51.276;6.472;2023-11-19T10:25:41;15.90;99.90
4811;DHT22;2419;51.276;6.472;2023-11-19T10:28:09;15.20;99.90
4811;DHT22;2419;51.276;6.472;2023-11-19T10:30:37;15.20;99.90
4811;DHT22;2419;51.276;6.472;2023-11-19T10:33:06;15.60;99.90
4811;DHT22;2419;51.276;6.472;2023-11-19T10:35:35;16.60;99.90
4811;DHT22;2419;51.276;6.472;2023-11-19T10:38:14;15.80;99.90
4811;DHT22;2419;51.276;6.472;2023-11-19T10:40:42;15.00;99.90
4811;DHT22;2419;51.276;6.472;2023-11-19T10:43:11;14.50;99.90
4811;DHT22;2419;51.276;6.472;2023-11-19T10:45:40;14.30;99.90
4811;DHT22;2419;51.276;6.472;2023-11-19T10:48:08;14.40;99.90
4811;DHT22;2419;51.276;6.472;2023-11-19T10:50:37;14.40;99.90
4811;DHT22;2419;51.276;6.472;2023-11-19T10:53:07;14.50;99.90
4811;DHT22;2419;51.276;6.472;2023-11-19T10:55:37;15.70;99.90
4811;DHT22;2419;51.276;6.472;2023-11-19T10:58:07;16.20;99.90
4811;DHT22;2419;51.276;6.472;2023-11-19T11:00:39;16.40;99.90
4811;DHT22;2419;51.276;6.472;2023-11-19T11:03:16;15.80;99.90
4811;DHT22;2419;51.276;6.472;2023-11-19T11:05:46;14.80;99.90
4811;DHT22;2419;51.276;6.472;2023-11-19T11:08:15;14.60;99.90
4811;DHT22;2419;51.276;6.472;2023-11-19T11:10:47;15.00;99.90
4811;DHT22;2419;51.276;6.472;2023-11-19T11:13:18;15.10;99.90
4811;DHT22;2419;51.276;6.472;2023-11-19T11:15:47;14.90;99.90
4811;DHT22;2419;51.276;6.472;2023-11-19T11:18:16;14.80;99.90
4811;DHT22;2419;51.276;6.472;2023-11-19T11:20:45;14.80;99.90
4811;DHT22;2419;51.276;6.472;2023-11-19T11:23:35;14.90;99.90
4811;DHT22;2419;51.276;6.472;2023-11-19T11:26:21;15.80;99.90
4811;DHT22;2419;51.276;6.472;2023-11-19T11:28:58;16.30;99.90
4811;DHT22;2419;51.276;6.472;2023-11-19T11:31:35;16.30;99.90
4811;DHT22;2419;51.276;6.472;2023-11-19T11:34:24;17.20;99.90
4811;DHT22;2419;51.276;6.472;2023-11-19T11:37:03;16.50;99.90
4811;DHT22;2419;51.276;6.472;2023-11-19T11:39:34;16.70;99.90
4811;DHT22;2419;51.276;6.472;2023-11-19T11:42:35;16.00;99.90
4811;DHT22;2419;51.276;6.472;2023-11-19T11:45:05;16.40;99.90
4811;DHT22;2419;51.276;6.472;2023-11-19T11:50:56;18.90;99.90
4811;DHT22;2419;51.276;6.472;2023-11-19T11:53:25;18.60;99.90
4811;DHT22;2419;51.276;6.472;2023-11-19T11:55:55;17.70;99.90
4811;DHT22;2419;51.276;6.472;2023-11-19T11:58:36;17.20;99.90
4811;DHT22;2419;51.276;6.472;2023-11-19T12:01:06;17.60;99.90
4811;DHT22;2419;51.276;6.472;2023-11-19T12:03:35;17.50;99.90
4811;DHT22;2419;51.276;6.472;2023-11-19T12:06:06;17.60;99.90
4811;DHT22;2419;51.276;6.472;2023-11-19T12:08:35;17.30;99.90
4811;DHT22;2419;51.276;6.472;2023-11-19T12:11:19;17.10;99.90
4811;DHT22;2419;51.276;6.472;2023-11-19T12:13:55;15.80;99.90
4811;DHT22;2419;51.276;6.472;2023-11-19T12:16:25;15.20;99.90
4811;DHT22;2419;51.276;6.472;2023-11-19T12:18:54;14.90;99.90
4811;DHT22;2419;51.276;6.472;2023-11-19T12:21:30;14.80;99.90
4811;DHT22;2419;51.276;6.472;2023-11-19T12:23:59;14.50;99.90
4811;DHT22;2419;51.276;6.472;2023-11-19T12:26:38;14.20;99.90
4811;DHT22;2419;51.276;6.472;2023-11-19T12:29:08;14.00;99.90
4811;DHT22;2419;51.276;6.472;2023-11-19T12:31:37;13.70;99.90
4811;DHT22;2419;51.276;6.472;2023-11-19T12:34:07;13.20;99.90
4811;DHT22;2419;51.276;6.472;2023-11-19T12:36:39;13.20;99.90
4811;DHT22;2419;51.276;6.472;2023-11-19T12:39:09;13.30;99.90
4811;DHT22;2419;51.276;6.472;2023-11-19T12:41:49;13.70;99.90
4811;DHT22;2419;51.276;6.472;2023-11-19T12:44:20;14.70;99.90
4811;DHT22;2419;51.276;6.472;2023-11-19T12:47:00;14.60;99.90
4811;DHT22;2419;51.276;6.472;2023-11-19T12:49:28;14.90;99.90
4811;DHT22;2419;51.276;6.472;2023-11-19T12:51:57;15.30;99.90
4811;DHT22;2419;51.276;6.472;2023-11-19T12:54:34;15.30;99.90
4811;DHT22;2419;51.276;6.472;2023-11-19T12:57:04;15.40;99.90
4811;DHT22;2419;51.276;6.472;2023-11-19T12:59:34;15.50;99.90
4811;DHT22;2419;51.276;6.472;2023-11-19T13:02:02;15.60;99.90
4811;DHT22;2419;51.276;6.472;2023-11-19T13:04:33;15.60;99.90
4811;DHT22;2419;51.276;6.472;2023-11-19T13:07:01;15.70;99.90
4811;DHT22;2419;51.276;6.472;2023-11-19T13:09:32;15.50;99.90
4811;DHT22;2419;51.276;6.472;2023-11-19T13:12:12;15.50;99.90
4811;DHT22;2419;51.276;6.472;2023-11-19T13:14:42;15.20;99.90
4811;DHT22;2419;51.276;6.472;2023-11-19T13:17:15;15.20;99.90
4811;DHT22;2419;51.276;6.472;2023-11-19T13:19:43;14.90;99.90
4811;DHT22;2419;51.276;6.472;2023-11-19T13:22:14;14.90;99.90
4811;DHT22;2419;51.276;6.472;2023-11-19T13:24:42;14.90;99.90
4811;DHT22;2419;51.276;6.472;2023-11-19T13:27:10;15.10;99.90
4811;DHT22;2419;51.276;6.472;2023-11-19T13:29:38;15.00;99.90
4811;DHT22;2419;51.276;6.472;2023-11-19T13:32:08;15.00;99.90
4811;DHT22;2419;51.276;6.472;2023-11-19T13:34:36;14.90;99.90
4811;DHT22;2419;51.276;6.472;2023-11-19T13:37:04;14.60;99.90
4811;DHT22;2419;51.276;6.472;2023-11-19T13:39:32;14.10;99.90
4811;DHT22;2419;51.276;6.472;2023-11-19T13:42:00;13.90;99.90
4811;DHT22;2419;51.276;6.472;2023-11-19T13:44:31;13.70;99.90
4811;DHT22;2419;51.276;6.472;2023-11-19T13:47:00;13.70;99.90
4811;DHT22;2419;51.276;6.472;2023-11-19T13:49:30;13.50;99.90
4811;DHT22;2419;51.276;6.472;2023-11-19T13:51:58;13.50;99.90
4811;DHT22;2419;51.276;6.472;2023-11-19T13:54:26;13.40;99.90
4811;DHT22;2419;51.276;6.472;2023-11-19T13:56:55;13.30;99.90
4811;DHT22;2419;51.276;6.472;2023-11-19T13:59:25;13.20;99.90
4811;DHT22;2419;51.276;6.472;2023-11-19T14:01:53;13.20;99.90
4811;DHT22;2419;51.276;6.472;2023-11-19T14:04:21;13.20;99.90
4811;DHT22;2419;51.276;6.472;2023-11-19T14:06:50;13.20;99.90
4811;DHT22;2419;51.276;6.472;2023-11-19T14:09:19;13.20;99.90
4811;DHT22;2419;51.276;6.472;2023-11-19T14:11:47;13.20;99.90
4811;DHT22;2419;51.276;6.472;2023-11-19T14:14:18;13.10;99.90
4811;DHT22;2419;51.276;6.472;2023-11-19T14:16:46;12.90;99.90
4811;DHT22;2419;51.276;6.472;2023-11-19T14:19:14;12.70;99.90
4811;DHT22;2419;51.276;6.472;2023-11-19T14:21:42;12.50;99.90
4811;DHT22;2419;51.276;6.472;2023-11-19T14:24:13;12.30;99.90
4811;DHT22;2419;51.276;6.472;2023-11-19T14:26:41;12.20;99.90
4811;DHT22;2419;51.276;6.472;2023-11-19T14:29:11;12.00;99.90
4811;DHT22;2419;51.276;6.472;2023-11-19T14:31:39;11.80;99.90
4811;DHT22;2419;51.276;6.472;2023-11-19T14:34:07;11.70;99.90
4811;DHT22;2419;51.276;6.472;2023-11-19T14:36:35;11.60;99.90
4811;DHT22;2419;51.276;6.472;2023-11-19T14:39:04;11.50;99.90
4811;DHT22;2419;51.276;6.472;2023-11-19T14:41:35;11.50;99.90
4811;DHT22;2419;51.276;6.472;2023-11-19T14:44:03;11.50;99.90
4811;DHT22;2419;51.276;6.472;2023-11-19T14:46:32;11.40;99.90
4811;DHT22;2419;51.276;6.472;2023-11-19T14:49:00;11.40;99.90
4811;DHT22;2419;51.276;6.472;2023-11-19T14:51:28;11.50;99.90
4811;DHT22;2419;51.276;6.472;2023-11-19T14:53:56;11.50;99.90
4811;DHT22;2419;51.276;6.472;2023-11-19T14:56:24;11.50;99.90
4811;DHT22;2419;51.276;6.472;2023-11-19T14:58:53;11.60;99.90
4811;DHT22;2419;51.276;6.472;2023-11-19T15:01:21;11.60;99.90
4811;DHT22;2419;51.276;6.472;2023-11-19T15:03:50;11.60;99.90
4811;DHT22;2419;51.276;6.472;2023-11-19T15:06:23;11.60;99.90
4811;DHT22;2419;51.276;6.472;2023-11-19T15:08:52;11.50;99.90
4811;DHT22;2419;51.276;6.472;2023-11-19T15:11:21;11.50;99.90
4811;DHT22;2419;51.276;6.472;2023-11-19T15:13:49;11.60;99.90
4811;DHT22;2419;51.276;6.472;2023-11-19T15:16:19;11.60;99.90
4811;DHT22;2419;51.276;6.472;2023-11-19T15:18:52;11.50;99.90
4811;DHT22;2419;51.276;6.472;2023-11-19T15:21:20;11.60;99.90
4811;DHT22;2419;51.276;6.472;2023-11-19T15:23:48;11.50;99.90
4811;DHT22;2419;51.276;6.472;2023-11-19T15:26:17;11.50;99.90
4811;DHT22;2419;51.276;6.472;2023-11-19T15:28:46;11.50;99.90
4811;DHT22;2419;51.276;6.472;2023-11-19T15:31:14;11.40;99.90
4811;DHT22;2419;51.276;6.472;2023-11-19T15:33:44;11.50;99.90
4811;DHT22;2419;51.276;6.472;2023-11-19T15:36:14;11.50;99.90
4811;DHT22;2419;51.276;6.472;2023-11-19T15:38:42;11.60;99.90
4811;DHT22;2419;51.276;6.472;2023-11-19T15:41:13;11.60;99.90
4811;DHT22;2419;51.276;6.472;2023-11-19T15:43:41;11.60;99.90
4811;DHT22;2419;51.276;6.472;2023-11-19T15:46:09;11.60;99.90
4811;DHT22;2419;51.276;6.472;2023-11-19T15:48:38;11.60;99.90
4811;DHT22;2419;51.276;6.472;2023-11-19T15:51:07;11.60;99.90
4811;DHT22;2419;51.276;6.472;2023-11-19T15:53:35;11.70;99.90
4811;DHT22;2419;51.276;6.472;2023-11-19T15:56:05;11.60;99.90
4811;DHT22;2419;51.276;6.472;2023-11-19T15:58:33;11.60;99.90
4811;DHT22;2419;51.276;6.472;2023-11-19T16:01:01;11.70;99.90
4811;DHT22;2419;51.276;6.472;2023-11-19T16:03:29;11.50;99.90
4811;DHT22;2419;51.276;6.472;2023-11-19T16:06:20;11.50;99.90
4811;DHT22;2419;51.276;6.472;2023-11-19T16:08:48;11.40;99.90
4811;DHT22;2419;51.276;6.472;2023-11-19T16:11:17;11.40;99.90
4811;DHT22;2419;51.276;6.472;2023-11-19T16:13:45;11.40;99.90
4811;DHT22;2419;51.276;6.472;2023-11-19T16:16:14;11.50;99.90
4811;DHT22;2419;51.276;6.472;2023-11-19T16:18:42;11.50;99.90
4811;DHT22;2419;51.276;6.472;2023-11-19T16:21:10;11.50;99.90